createdAt,value
2023-01-19T00:01:08.189Z,41.53
2023-01-19T00:03:37.077Z,41.49
2023-01-19T00:06:08.887Z,41.50
2023-01-19T00:08:37.703Z,41.35
2023-01-19T00:11:06.436Z,41.51
2023-01-19T00:13:35.177Z,41.53
2023-01-19T00:16:03.890Z,41.51
2023-01-19T00:18:32.546Z,41.50
2023-01-19T00:21:01.105Z,41.39
2023-01-19T00:23:31.263Z,41.47
2023-01-19T00:25:59.785Z,41.27
2023-01-19T00:28:28.448Z,41.37
2023-01-19T00:30:57.175Z,41.28
2023-01-19T00:33:25.903Z,41.31
2023-01-19T00:35:55.045Z,41.26
2023-01-19T00:38:23.955Z,41.26
2023-01-19T00:40:53.934Z,41.33
2023-01-19T00:43:21.631Z,41.22
2023-01-19T00:45:50.404Z,41.17
2023-01-19T00:48:19.186Z,41.22
2023-01-19T00:50:47.970Z,41.25
2023-01-19T00:53:16.806Z,41.22
2023-01-19T00:55:45.474Z,41.09
2023-01-19T00:58:15.672Z,41.14
2023-01-19T01:00:44.917Z,41.11
2023-01-19T01:03:16.672Z,41.04
2023-01-19T01:05:45.464Z,41.01
2023-01-19T01:08:14.151Z,41.13
2023-01-19T01:10:42.725Z,41.05
2023-01-19T01:13:22.468Z,41.07
2023-01-19T01:15:54.232Z,41.18
2023-01-19T01:18:23.232Z,41.20
2023-01-19T01:20:52.729Z,40.94
2023-01-19T01:23:23.236Z,41.13
2023-01-19T01:25:51.967Z,41.06
2023-01-19T01:28:20.594Z,41.05
2023-01-19T01:30:49.177Z,41.11
2023-01-19T01:33:40.472Z,41.11
2023-01-19T01:36:09.541Z,40.95
2023-01-19T01:38:38.401Z,40.99
2023-01-19T01:41:07.007Z,41.00
2023-01-19T01:43:49.697Z,41.01
2023-01-19T01:46:20.158Z,41.06
2023-01-19T01:48:52.372Z,41.04
2023-01-19T01:51:25.480Z,40.99
2023-01-19T01:54:14.371Z,40.89
2023-01-19T01:56:45.816Z,40.91
2023-01-19T01:59:25.863Z,40.78
2023-01-19T02:02:12.173Z,40.91
2023-01-19T02:04:45.652Z,40.99
2023-01-19T02:07:33.199Z,40.82
2023-01-19T02:10:19.151Z,40.83
2023-01-19T02:13:05.071Z,40.78
2023-01-19T02:15:33.804Z,40.77
2023-01-19T02:18:02.517Z,40.76
2023-01-19T02:20:32.692Z,40.67
2023-01-19T02:23:03.319Z,40.69
2023-01-19T02:25:33.984Z,40.73
2023-01-19T02:28:02.594Z,40.69
2023-01-19T02:30:31.457Z,40.75
2023-01-19T02:33:00.433Z,40.66
2023-01-19T02:35:29.228Z,40.69
2023-01-19T02:37:57.911Z,40.78
2023-01-19T02:40:27.200Z,40.69
2023-01-19T02:42:58.903Z,40.75
2023-01-19T02:45:28.018Z,40.55
2023-01-19T02:47:57.253Z,40.59
2023-01-19T02:50:46.262Z,40.61
2023-01-19T02:53:51.440Z,40.52
2023-01-19T02:57:01.270Z,40.66
2023-01-19T02:59:41.263Z,40.61
2023-01-19T03:02:27.789Z,40.53
2023-01-19T03:05:05.149Z,40.58
2023-01-19T03:07:43.474Z,40.51
2023-01-19T03:10:17.098Z,40.32
2023-01-19T03:12:48.217Z,40.72
2023-01-19T03:15:21.029Z,40.63
2023-01-19T03:17:51.115Z,40.61
2023-01-19T03:20:24.079Z,40.60
2023-01-19T03:22:55.962Z,40.55
2023-01-19T03:25:24.721Z,40.67
2023-01-19T03:27:54.929Z,40.62
2023-01-19T03:30:28.510Z,40.51
2023-01-19T03:32:59.950Z,40.44
2023-01-19T03:35:30.773Z,40.59
2023-01-19T03:37:59.529Z,40.64
2023-01-19T03:40:28.747Z,40.54
2023-01-19T03:42:58.310Z,40.56
2023-01-19T03:45:30.916Z,40.43
2023-01-19T03:47:59.998Z,40.51
2023-01-19T03:50:30.226Z,40.49
2023-01-19T03:53:03.762Z,40.56
2023-01-19T03:55:32.814Z,40.53
2023-01-19T03:58:01.477Z,40.49
2023-01-19T04:00:31.640Z,40.43
2023-01-19T04:03:00.707Z,40.63
2023-01-19T04:05:29.763Z,40.50
2023-01-19T04:07:58.327Z,40.38
2023-01-19T04:10:27.202Z,40.43
2023-01-19T04:12:59.609Z,40.33
2023-01-19T04:15:30.269Z,40.49
2023-01-19T04:17:59.395Z,40.40
2023-01-19T04:20:28.399Z,40.45
2023-01-19T04:23:00.041Z,40.43
2023-01-19T04:25:29.165Z,40.41
2023-01-19T04:27:58.434Z,40.44
2023-01-19T04:30:27.553Z,40.43
2023-01-19T04:32:58.824Z,40.53
2023-01-19T04:35:27.717Z,40.40
2023-01-19T04:37:56.323Z,40.34
2023-01-19T04:40:25.261Z,40.29
2023-01-19T04:42:54.473Z,40.26
2023-01-19T04:45:23.225Z,40.31
2023-01-19T04:47:52.396Z,40.38
2023-01-19T04:50:22.745Z,40.43
2023-01-19T04:52:51.297Z,40.33
2023-01-19T04:55:20.141Z,40.20
2023-01-19T04:57:48.772Z,40.33
2023-01-19T05:00:19.445Z,40.36
2023-01-19T05:02:48.176Z,40.31
2023-01-19T05:05:17.629Z,40.28
2023-01-19T05:07:47.548Z,40.30
2023-01-19T05:10:16.137Z,40.34
2023-01-19T05:12:44.899Z,40.42
2023-01-19T05:15:13.802Z,40.23
2023-01-19T05:17:42.375Z,40.41
2023-01-19T05:20:15.847Z,40.15
2023-01-19T05:22:51.558Z,40.18
2023-01-19T05:25:20.234Z,40.35
2023-01-19T05:27:48.935Z,40.20
2023-01-19T05:30:18.289Z,40.21
2023-01-19T05:32:46.922Z,40.37
2023-01-19T05:35:18.249Z,40.33
2023-01-19T05:37:50.866Z,40.21
2023-01-19T05:40:19.605Z,40.43
2023-01-19T05:42:48.150Z,40.38
2023-01-19T05:45:17.132Z,40.44
2023-01-19T05:47:45.739Z,40.37
2023-01-19T05:50:14.451Z,40.27
2023-01-19T05:52:43.112Z,40.36
2023-01-19T05:55:15.465Z,40.56
2023-01-19T05:57:44.328Z,40.60
2023-01-19T06:00:14.731Z,41.15
2023-01-19T06:02:43.622Z,41.46
2023-01-19T06:05:12.416Z,41.32
2023-01-19T06:07:40.930Z,42.10
2023-01-19T06:10:12.504Z,42.51
2023-01-19T06:12:41.685Z,41.89
2023-01-19T06:15:11.098Z,42.43
2023-01-19T06:17:39.699Z,42.48
2023-01-19T06:20:09.575Z,42.71
2023-01-19T06:22:38.101Z,42.84
2023-01-19T06:25:08.120Z,42.79
2023-01-19T06:27:39.891Z,42.29
2023-01-19T06:30:10.394Z,42.73
2023-01-19T06:32:39.237Z,42.98
2023-01-19T06:35:08.867Z,43.05
2023-01-19T06:37:37.502Z,42.74
2023-01-19T06:40:07.874Z,43.23
2023-01-19T06:42:37.931Z,43.29
2023-01-19T06:45:09.223Z,43.44
2023-01-19T06:47:37.892Z,42.88
2023-01-19T06:50:07.935Z,42.94
2023-01-19T06:52:42.590Z,43.10
2023-01-19T06:55:12.162Z,42.80
2023-01-19T06:57:42.467Z,43.02
2023-01-19T07:00:12.460Z,43.13
2023-01-19T07:02:43.643Z,42.95
2023-01-19T07:05:14.531Z,42.92
2023-01-19T07:07:44.935Z,42.50
2023-01-19T07:10:15.793Z,42.61
2023-01-19T07:12:47.459Z,42.30
2023-01-19T07:15:16.999Z,42.56
2023-01-19T07:17:45.766Z,42.42
2023-01-19T07:20:15.190Z,42.58
2023-01-19T07:22:45.847Z,42.46
2023-01-19T07:25:14.732Z,42.35
2023-01-19T07:27:45.054Z,42.39
2023-01-19T07:30:17.079Z,42.86
2023-01-19T07:32:45.699Z,42.88
2023-01-19T07:35:14.625Z,42.98
2023-01-19T07:37:43.662Z,43.23
2023-01-19T07:40:13.854Z,43.17
2023-01-19T07:42:48.781Z,42.98
2023-01-19T07:45:20.605Z,42.76
2023-01-19T07:47:50.101Z,42.77
2023-01-19T07:50:21.484Z,42.83
2023-01-19T07:52:51.936Z,42.65
2023-01-19T07:55:20.885Z,42.63
2023-01-19T07:57:51.088Z,42.87
2023-01-19T08:00:24.970Z,42.57
2023-01-19T08:02:53.928Z,42.73
2023-01-19T08:05:23.605Z,42.73
2023-01-19T08:07:54.165Z,43.02
2023-01-19T08:10:25.940Z,43.24
2023-01-19T08:12:54.767Z,44.07
2023-01-19T08:15:25.068Z,44.03
2023-01-19T08:17:58.541Z,43.82
2023-01-19T08:20:27.547Z,44.01
2023-01-19T08:23:00.297Z,43.60
2023-01-19T08:25:33.745Z,43.45
2023-01-19T08:28:02.340Z,43.65
2023-01-19T08:30:32.614Z,43.44
2023-01-19T08:33:05.081Z,43.72
2023-01-19T08:35:34.201Z,43.96
2023-01-19T08:38:02.821Z,43.82
2023-01-19T08:40:33.995Z,43.57
2023-01-19T08:43:05.815Z,43.47
2023-01-19T08:45:35.962Z,43.38
2023-01-19T08:48:06.318Z,43.28
2023-01-19T08:50:35.474Z,43.17
2023-01-19T08:53:06.592Z,43.36
2023-01-19T08:55:36.355Z,43.54
2023-01-19T08:58:06.038Z,43.32
2023-01-19T09:00:38.177Z,43.33
2023-01-19T09:03:07.384Z,43.31
2023-01-19T09:05:38.868Z,43.31
2023-01-19T09:08:09.815Z,43.10
2023-01-19T09:10:39.228Z,43.04
2023-01-19T09:13:10.924Z,42.94
2023-01-19T09:15:41.096Z,43.13
2023-01-19T09:18:13.681Z,43.04
2023-01-19T09:20:43.032Z,43.02
2023-01-19T09:23:11.884Z,42.74
2023-01-19T09:25:40.574Z,42.85
2023-01-19T09:28:10.313Z,42.91
2023-01-19T09:30:41.372Z,42.83
2023-01-19T09:33:11.812Z,42.83
2023-01-19T09:35:40.811Z,42.59
2023-01-19T09:38:10.327Z,42.66
2023-01-19T09:40:43.135Z,42.49
2023-01-19T09:43:18.126Z,42.57
2023-01-19T09:45:50.914Z,42.65
2023-01-19T09:48:35.734Z,42.51
2023-01-19T09:51:07.735Z,42.41
2023-01-19T09:53:46.855Z,42.31
2023-01-19T09:56:15.808Z,42.45
2023-01-19T09:58:44.450Z,42.26
2023-01-19T10:01:25.408Z,42.32
2023-01-19T10:04:03.963Z,42.36
2023-01-19T10:06:32.604Z,42.24
2023-01-19T10:09:05.398Z,42.45
2023-01-19T10:11:51.511Z,42.62
2023-01-19T10:14:23.803Z,42.62
2023-01-19T10:16:59.258Z,42.56
2023-01-19T10:19:30.740Z,42.35
2023-01-19T10:22:01.154Z,42.32
2023-01-19T10:24:33.260Z,42.18
2023-01-19T10:27:01.906Z,42.24
2023-01-19T10:29:34.816Z,42.21
2023-01-19T10:32:08.286Z,42.10
2023-01-19T10:34:37.142Z,42.03
2023-01-19T10:37:11.839Z,42.19
2023-01-19T10:39:40.644Z,42.12
2023-01-19T10:42:11.959Z,41.99
2023-01-19T10:44:40.732Z,42.13
2023-01-19T10:47:16.732Z,41.98
2023-01-19T10:49:46.102Z,42.03
2023-01-19T10:52:23.052Z,41.87
2023-01-19T10:54:51.808Z,41.92
2023-01-19T10:57:28.073Z,41.89
2023-01-19T10:59:57.091Z,41.94
2023-01-19T11:02:27.905Z,41.91
2023-01-19T11:04:57.877Z,41.79
2023-01-19T11:07:30.914Z,41.80
2023-01-19T11:10:24.123Z,41.83
2023-01-19T11:13:12.945Z,41.77
2023-01-19T11:15:44.032Z,41.79
2023-01-19T11:18:25.243Z,41.51
2023-01-19T11:20:55.097Z,41.75
2023-01-19T11:23:27.396Z,41.65
2023-01-19T11:25:58.458Z,41.69
2023-01-19T11:28:31.306Z,41.66
2023-01-19T11:31:01.309Z,41.49
2023-01-19T11:33:37.218Z,41.68
2023-01-19T11:36:07.978Z,41.59
2023-01-19T11:38:43.551Z,41.53
2023-01-19T11:41:20.846Z,41.47
2023-01-19T11:43:51.390Z,41.60
2023-01-19T11:46:20.409Z,41.61
2023-01-19T11:48:57.427Z,41.39
2023-01-19T11:51:27.020Z,41.33
2023-01-19T11:53:55.664Z,41.46
2023-01-19T11:56:25.546Z,41.45
2023-01-19T11:58:55.521Z,41.23
2023-01-19T12:01:25.727Z,41.27
2023-01-19T12:04:00.822Z,41.25
2023-01-19T12:06:32.812Z,41.34
2023-01-19T12:09:04.242Z,41.32
2023-01-19T12:11:34.402Z,41.33
2023-01-19T12:14:03.359Z,41.34
2023-01-19T12:16:33.701Z,41.26
2023-01-19T12:19:06.346Z,41.24
2023-01-19T12:21:35.687Z,41.39
2023-01-19T12:24:11.190Z,41.28
2023-01-19T12:26:42.106Z,41.17
2023-01-19T12:29:14.547Z,41.14
2023-01-19T12:31:44.160Z,41.05
2023-01-19T12:34:44.317Z,41.05
2023-01-19T12:37:34.984Z,41.20
2023-01-19T12:40:06.884Z,41.18
2023-01-19T12:42:35.565Z,40.98
2023-01-19T12:45:09.299Z,41.01
2023-01-19T12:47:38.343Z,41.06
2023-01-19T12:50:12.883Z,41.00
2023-01-19T12:52:48.089Z,41.11
2023-01-19T12:55:23.469Z,41.01
2023-01-19T12:57:59.768Z,41.05
2023-01-19T13:00:37.683Z,41.19
2023-01-19T13:03:40.629Z,41.26
2023-01-19T13:06:10.731Z,41.18
2023-01-19T13:08:59.610Z,41.31
2023-01-19T13:11:33.355Z,41.15
2023-01-19T13:14:36.235Z,41.39
2023-01-19T13:17:23.437Z,41.29
2023-01-19T13:20:20.184Z,41.45
2023-01-19T13:23:26.421Z,41.35
2023-01-19T13:26:14.160Z,41.38
2023-01-19T13:28:44.456Z,41.20
2023-01-19T13:31:13.753Z,41.18
2023-01-19T13:33:50.021Z,41.08
2023-01-19T13:36:28.795Z,41.09
2023-01-19T13:38:59.326Z,41.17
2023-01-19T13:41:30.722Z,41.05
2023-01-19T13:44:03.235Z,41.08
2023-01-19T13:46:33.619Z,40.98
2023-01-19T13:49:05.473Z,40.94
2023-01-19T13:51:34.274Z,40.99
2023-01-19T13:54:05.760Z,40.99
2023-01-19T13:56:34.504Z,40.88
2023-01-19T13:59:13.617Z,40.98
2023-01-19T14:01:46.222Z,40.83
2023-01-19T14:04:29.931Z,40.90
2023-01-19T14:07:00.038Z,40.94
2023-01-19T14:09:30.014Z,40.89
2023-01-19T14:12:22.551Z,40.85
2023-01-19T14:14:51.099Z,40.90
2023-01-19T14:17:26.487Z,40.86
2023-01-19T14:19:56.115Z,40.77
2023-01-19T14:22:40.229Z,40.74
2023-01-19T14:25:30.969Z,40.66
2023-01-19T14:28:31.152Z,40.63
2023-01-19T14:31:00.821Z,40.57
2023-01-19T14:33:37.499Z,40.66
2023-01-19T14:36:30.327Z,40.75
2023-01-19T14:39:01.147Z,40.72
2023-01-19T14:41:38.172Z,40.58
2023-01-19T14:44:11.027Z,40.60
2023-01-19T14:46:39.771Z,40.50
2023-01-19T14:49:09.932Z,40.66
2023-01-19T14:51:38.474Z,40.65
2023-01-19T14:54:07.343Z,40.47
2023-01-19T14:56:39.649Z,40.45
2023-01-19T14:59:11.044Z,40.46
2023-01-19T15:01:39.887Z,40.51
2023-01-19T15:04:08.742Z,40.51
2023-01-19T15:06:39.748Z,40.47
2023-01-19T15:09:10.095Z,40.43
2023-01-19T15:11:40.171Z,40.30
2023-01-19T15:14:10.663Z,40.47
2023-01-19T15:16:39.373Z,40.42
2023-01-19T15:19:09.730Z,40.75
2023-01-19T15:21:42.220Z,40.38
2023-01-19T15:24:11.665Z,40.47
2023-01-19T15:26:43.133Z,40.41
2023-01-19T15:29:24.408Z,40.46
2023-01-19T15:31:53.541Z,40.45
2023-01-19T15:34:22.204Z,40.56
2023-01-19T15:36:50.996Z,40.34
2023-01-19T15:39:19.618Z,40.32
2023-01-19T15:41:49.568Z,40.35
2023-01-19T15:44:18.273Z,40.33
2023-01-19T15:46:47.055Z,40.26
2023-01-19T15:49:15.678Z,40.40
2023-01-19T15:51:44.361Z,40.27
2023-01-19T15:54:15.273Z,40.33
2023-01-19T15:56:43.954Z,40.37
2023-01-19T15:59:13.932Z,40.35
2023-01-19T16:01:42.885Z,40.27
2023-01-19T16:04:12.174Z,40.41
2023-01-19T16:06:40.893Z,40.34
2023-01-19T16:09:09.456Z,39.90
2023-01-19T16:11:38.841Z,40.22
2023-01-19T16:14:07.535Z,40.35
2023-01-19T16:16:37.604Z,40.37
2023-01-19T16:19:06.173Z,40.39
2023-01-19T16:21:34.812Z,40.64
2023-01-19T16:24:03.460Z,40.50
2023-01-19T16:26:34.444Z,40.69
2023-01-19T16:29:07.978Z,40.72
2023-01-19T16:31:38.342Z,40.73
2023-01-19T16:34:07.026Z,41.10
2023-01-19T16:36:37.096Z,40.93
2023-01-19T16:39:06.848Z,41.14
2023-01-19T16:41:35.763Z,41.06
2023-01-19T16:44:04.689Z,40.99
2023-01-19T16:46:35.285Z,40.73
2023-01-19T16:49:06.391Z,40.92
2023-01-19T16:51:35.078Z,40.71
2023-01-19T16:54:03.795Z,40.68
2023-01-19T16:56:32.612Z,40.67
2023-01-19T16:59:01.249Z,40.97
2023-01-19T17:01:30.431Z,40.84
2023-01-19T17:03:59.055Z,40.71
2023-01-19T17:06:30.278Z,40.74
2023-01-19T17:08:59.363Z,40.70
2023-01-19T17:11:30.403Z,40.64
2023-01-19T17:14:01.177Z,40.72
2023-01-19T17:16:31.111Z,40.67
2023-01-19T17:19:01.084Z,40.65
2023-01-19T17:21:31.182Z,40.74
2023-01-19T17:24:00.197Z,40.56
2023-01-19T17:26:31.095Z,40.59
2023-01-19T17:29:00.775Z,40.63
2023-01-19T17:31:29.958Z,40.62
2023-01-19T17:33:58.801Z,40.70
2023-01-19T17:36:28.213Z,40.76
2023-01-19T17:38:59.279Z,40.93
2023-01-19T17:41:29.473Z,40.67
2023-01-19T17:43:58.412Z,40.50
2023-01-19T17:46:28.387Z,40.72
2023-01-19T17:48:58.031Z,40.60
2023-01-19T17:51:26.852Z,40.62
2023-01-19T17:53:57.196Z,40.68
2023-01-19T17:56:28.473Z,40.86
2023-01-19T17:58:57.253Z,40.76
2023-01-19T18:01:27.575Z,40.67
2023-01-19T18:03:56.274Z,40.94
2023-01-19T18:06:25.090Z,40.85
2023-01-19T18:08:54.278Z,41.11
2023-01-19T18:11:24.173Z,41.14
2023-01-19T18:13:52.966Z,40.97
2023-01-19T18:16:23.441Z,40.59
2023-01-19T18:18:53.731Z,40.33
2023-01-19T18:21:22.803Z,40.81
2023-01-19T18:23:51.522Z,40.81
2023-01-19T18:26:21.776Z,40.94
2023-01-19T18:28:54.007Z,40.82
2023-01-19T18:31:22.652Z,40.75
2023-01-19T18:33:51.371Z,40.64
2023-01-19T18:36:20.340Z,40.76
2023-01-19T18:38:49.705Z,40.73
2023-01-19T18:41:20.523Z,40.79
2023-01-19T18:43:49.194Z,40.64
2023-01-19T18:46:21.289Z,40.65
2023-01-19T18:48:50.031Z,40.71
2023-01-19T18:51:18.800Z,40.58
2023-01-19T18:53:47.573Z,40.62
2023-01-19T18:56:16.748Z,40.54
2023-01-19T18:58:45.659Z,40.59
2023-01-19T19:01:22.388Z,40.74
2023-01-19T19:03:51.269Z,40.52
2023-01-19T19:06:20.945Z,40.59
2023-01-19T19:08:50.480Z,40.53
2023-01-19T19:11:19.524Z,40.50
2023-01-19T19:13:52.025Z,40.45
2023-01-19T19:16:22.205Z,40.57
2023-01-19T19:18:50.940Z,40.42
2023-01-19T19:21:20.803Z,40.47
2023-01-19T19:23:52.400Z,40.62
2023-01-19T19:26:21.190Z,40.77
2023-01-19T19:28:49.879Z,40.69
2023-01-19T19:31:20.681Z,40.72
2023-01-19T19:33:51.302Z,40.58
2023-01-19T19:36:20.561Z,40.58
2023-01-19T19:38:49.403Z,40.61
2023-01-19T19:41:22.969Z,40.54
2023-01-19T19:43:51.914Z,40.69
2023-01-19T19:46:21.284Z,40.55
2023-01-19T19:48:51.379Z,40.46
2023-01-19T19:51:22.651Z,40.61
2023-01-19T19:53:51.894Z,40.72
2023-01-19T19:56:22.063Z,40.65
2023-01-19T19:58:50.873Z,34.24
2023-01-19T20:01:20.560Z,40.13
2023-01-19T20:03:51.010Z,40.42
2023-01-19T20:06:21.405Z,40.62
2023-01-19T20:08:50.678Z,40.70
2023-01-19T20:11:21.022Z,40.96
2023-01-19T20:13:50.909Z,41.01
2023-01-19T20:16:21.420Z,41.15
2023-01-19T20:18:54.319Z,41.10
2023-01-19T20:21:26.338Z,40.69
2023-01-19T20:23:58.102Z,41.70
2023-01-19T20:26:28.474Z,41.87
2023-01-19T20:29:00.072Z,41.71
2023-01-19T20:31:30.615Z,41.41
2023-01-19T20:34:02.999Z,41.38
2023-01-19T20:36:31.866Z,41.19
2023-01-19T20:39:00.676Z,41.07
2023-01-19T20:41:29.246Z,41.21
2023-01-19T20:43:57.939Z,41.01
2023-01-19T20:46:26.751Z,40.99
2023-01-19T20:48:55.296Z,41.08
2023-01-19T20:51:26.893Z,40.81
2023-01-19T20:53:55.540Z,40.82
2023-01-19T20:56:24.131Z,40.69
2023-01-19T20:58:52.692Z,40.79
2023-01-19T21:01:23.528Z,40.78
2023-01-19T21:03:52.181Z,40.77
2023-01-19T21:06:21.202Z,40.62
2023-01-19T21:08:51.269Z,40.74
2023-01-19T21:11:21.101Z,40.56
2023-01-19T21:13:50.761Z,40.72
2023-01-19T21:16:19.390Z,40.74
2023-01-19T21:18:47.956Z,40.63
2023-01-19T21:21:29.469Z,40.85
2023-01-19T21:24:00.511Z,40.92
2023-01-19T21:26:30.309Z,41.11
2023-01-19T21:28:59.125Z,41.14
2023-01-19T21:31:28.435Z,40.95
2023-01-19T21:33:58.631Z,40.98
2023-01-19T21:36:27.391Z,40.85
2023-01-19T21:39:00.655Z,40.84
2023-01-19T21:41:31.130Z,40.90
2023-01-19T21:44:01.216Z,40.93
2023-01-19T21:46:30.586Z,40.85
2023-01-19T21:48:59.914Z,40.81
2023-01-19T21:51:28.654Z,40.90
2023-01-19T21:53:59.821Z,40.85
2023-01-19T21:56:30.050Z,40.97
2023-01-19T21:59:02.204Z,41.08
2023-01-19T22:01:30.938Z,40.95
2023-01-19T22:03:59.955Z,40.98
2023-01-19T22:06:29.323Z,41.17
2023-01-19T22:08:58.610Z,41.13
2023-01-19T22:11:27.586Z,40.85
2023-01-19T22:13:59.829Z,41.10
2023-01-19T22:16:28.671Z,41.00
2023-01-19T22:18:59.611Z,40.82
2023-01-19T22:21:30.026Z,40.88
2023-01-19T22:24:00.379Z,40.77
2023-01-19T22:26:29.784Z,40.88
2023-01-19T22:29:01.245Z,40.63
2023-01-19T22:31:30.687Z,40.70
2023-01-19T22:33:59.558Z,40.72
2023-01-19T22:36:29.727Z,40.61
2023-01-19T22:38:59.300Z,40.53
2023-01-19T22:41:29.256Z,40.58
2023-01-19T22:44:00.461Z,40.62
2023-01-19T22:46:30.754Z,40.51
2023-01-19T22:48:59.894Z,40.59
2023-01-19T22:51:29.072Z,40.44
2023-01-19T22:53:57.715Z,40.49
2023-01-19T22:56:27.590Z,40.52
2023-01-19T22:58:56.213Z,40.46
2023-01-19T23:01:28.077Z,40.44
2023-01-19T23:03:57.158Z,40.44
2023-01-19T23:06:27.032Z,40.47
2023-01-19T23:08:57.055Z,40.46
2023-01-19T23:11:29.514Z,40.47
2023-01-19T23:13:59.067Z,40.28
2023-01-19T23:16:29.288Z,40.45
2023-01-19T23:18:59.040Z,40.31
2023-01-19T23:21:29.194Z,40.44
2023-01-19T23:24:00.407Z,40.41
2023-01-19T23:26:30.856Z,40.52
2023-01-19T23:29:00.910Z,40.22
2023-01-19T23:31:31.874Z,40.32
2023-01-19T23:34:01.707Z,40.31
2023-01-19T23:36:32.310Z,40.36
2023-01-19T23:39:02.084Z,40.34
2023-01-19T23:41:32.458Z,40.28
2023-01-19T23:44:01.273Z,40.46
2023-01-19T23:46:31.689Z,40.36
2023-01-19T23:49:00.602Z,40.43
2023-01-19T23:51:30.685Z,40.31
2023-01-19T23:53:59.455Z,40.33
2023-01-19T23:56:29.451Z,40.28
2023-01-19T23:58:59.489Z,40.26
